createdAt,value
2022-12-08T11:27:36.993Z,5.32
2022-12-08T11:33:06.020Z,8.10
2022-12-08T11:43:12.082Z,6.53
2022-12-08T11:48:41.112Z,7.82
2022-12-08T11:54:12.436Z,6.70
2022-12-08T11:59:38.394Z,6.15
2022-12-08T12:05:05.179Z,7.85
2022-12-08T12:10:49.189Z,5.15
2022-12-08T12:16:15.914Z,9.85
2022-12-08T12:21:43.861Z,8.23
2022-12-08T12:27:25.004Z,5.57
2022-12-08T12:32:59.015Z,5.53
2022-12-08T12:38:53.978Z,6.30
2022-12-08T12:44:14.704Z,5.13
2022-12-08T12:50:05.981Z,4.75
2022-12-08T12:55:29.590Z,3.47
2022-12-08T13:00:50.508Z,5.05
2022-12-08T13:06:14.907Z,4.80
2022-12-08T13:11:50.221Z,3.88
2022-12-08T13:17:15.874Z,3.63
2022-12-08T13:22:53.477Z,4.85
2022-12-08T13:28:24.417Z,6.28
2022-12-08T13:33:45.302Z,11.02
2022-12-08T13:39:07.463Z,3.40
2022-12-08T13:52:32.769Z,4.03
2022-12-08T14:02:30.135Z,2.83
2022-12-08T14:07:55.205Z,3.47
2022-12-08T14:13:17.049Z,5.00
2022-12-08T14:18:37.990Z,4.53
2022-12-08T14:24:03.207Z,6.07
2022-12-08T14:29:46.945Z,3.20
2022-12-08T14:35:08.188Z,3.60
2022-12-08T14:40:36.370Z,3.00
2022-12-08T14:46:05.155Z,3.80
2022-12-08T14:51:31.095Z,6.22
2022-12-08T14:56:54.934Z,4.68
2022-12-08T15:02:15.899Z,5.60
2022-12-08T15:07:48.797Z,6.22
2022-12-08T15:13:09.794Z,6.40
2022-12-08T15:18:37.272Z,8.38
2022-12-08T15:23:58.181Z,4.88
2022-12-08T15:29:30.383Z,5.82
2022-12-08T15:34:51.363Z,5.78
2022-12-08T15:40:20.136Z,5.32
2022-12-08T15:45:50.552Z,4.18
2022-12-08T15:51:18.829Z,4.68
2022-12-08T15:57:17.838Z,6.53
2022-12-08T16:08:44.736Z,6.30
2022-12-08T16:14:09.455Z,5.05
2022-12-08T16:19:38.719Z,7.93
2022-12-08T16:25:14.693Z,9.27
2022-12-08T16:30:39.043Z,10.25
2022-12-08T16:35:59.929Z,11.63
2022-12-08T16:41:39.197Z,11.25
2022-12-08T16:47:09.151Z,8.70
2022-12-08T16:52:29.950Z,10.07
2022-12-08T16:57:51.077Z,8.23
2022-12-08T17:03:14.732Z,8.30
2022-12-08T17:08:35.526Z,8.75
2022-12-08T17:13:56.152Z,8.85
2022-12-08T17:19:16.727Z,10.30
2022-12-08T17:24:38.235Z,10.43
2022-12-08T17:29:59.601Z,8.88
2022-12-08T17:35:20.668Z,6.38
2022-12-08T17:40:41.589Z,7.93
2022-12-08T17:46:02.544Z,12.38
2022-12-08T17:51:23.362Z,9.43
2022-12-08T17:56:45.058Z,8.80
2022-12-08T18:02:06.128Z,23.25
2022-12-08T18:07:27.055Z,9.35
2022-12-08T18:12:47.909Z,9.13
2022-12-08T18:18:08.597Z,7.57
2022-12-08T18:23:29.555Z,8.68
2022-12-08T18:28:50.307Z,12.55
2022-12-08T18:34:11.604Z,9.60
2022-12-08T18:39:35.899Z,27.45
2022-12-08T18:45:06.826Z,18.42
2022-12-08T18:50:27.544Z,18.00
2022-12-08T18:55:50.936Z,18.83
2022-12-08T19:01:15.179Z,17.00
2022-12-08T19:06:40.176Z,10.88
2022-12-08T19:12:00.965Z,10.07
2022-12-08T19:17:22.149Z,29.50
2022-12-08T19:22:43.078Z,33.95
2022-12-08T19:28:05.035Z,32.15
2022-12-08T19:33:26.881Z,40.47
2022-12-08T19:39:08.205Z,30.00
2022-12-08T19:44:47.713Z,34.90
2022-12-08T19:50:28.505Z,31.58
2022-12-08T19:55:49.478Z,29.05
2022-12-08T20:01:10.277Z,31.58
2022-12-08T20:06:31.095Z,31.17
2022-12-08T20:11:54.617Z,44.30
2022-12-08T20:17:15.691Z,34.03
2022-12-08T20:22:36.259Z,29.13
2022-12-08T20:27:57.132Z,27.42
2022-12-08T20:33:19.340Z,20.85
2022-12-08T20:38:40.318Z,21.30
2022-12-08T20:44:01.166Z,22.45
2022-12-08T20:49:22.136Z,23.83
2022-12-08T20:54:44.259Z,29.58
2022-12-08T21:00:07.005Z,29.30
2022-12-08T21:05:28.386Z,29.83
2022-12-08T21:10:58.212Z,36.60
2022-12-08T21:16:18.946Z,39.50
2022-12-08T21:21:40.205Z,41.58
2022-12-08T21:27:01.827Z,37.30
2022-12-08T21:32:28.586Z,32.22
2022-12-08T21:37:51.337Z,28.13
2022-12-08T21:43:13.676Z,25.30
2022-12-08T21:48:34.599Z,27.83
2022-12-08T21:53:55.381Z,27.67
2022-12-08T21:59:16.795Z,29.95
2022-12-08T22:04:39.182Z,26.85
2022-12-08T22:10:00.331Z,30.23
2022-12-08T22:15:21.770Z,28.60
2022-12-08T22:20:44.404Z,32.45
2022-12-08T22:26:06.284Z,28.42
2022-12-08T22:31:28.405Z,26.20
2022-12-08T22:36:49.354Z,34.38
2022-12-08T22:42:10.118Z,28.00
2022-12-08T22:47:31.041Z,30.92
2022-12-08T22:52:51.663Z,24.83
2022-12-08T22:58:12.300Z,24.10
2022-12-08T23:03:33.505Z,27.40
2022-12-08T23:08:55.481Z,46.22
2022-12-08T23:14:16.668Z,35.40
2022-12-08T23:19:38.709Z,29.90
2022-12-08T23:24:59.505Z,25.38
2022-12-08T23:30:20.184Z,22.23
2022-12-08T23:35:40.803Z,27.17
2022-12-08T23:41:06.541Z,26.80
2022-12-08T23:46:27.698Z,25.50
2022-12-08T23:51:49.257Z,24.13
2022-12-08T23:57:10.247Z,28.17
